createdAt,value
2019-05-01T00:00:44.177Z,41.80
2019-05-01T00:03:31.275Z,47.85
2019-05-01T00:06:01.454Z,44.08
2019-05-01T00:08:29.986Z,44.30
2019-05-01T00:11:00.815Z,46.02
2019-05-01T00:13:29.631Z,43.73
2019-05-01T00:15:58.798Z,47.35
2019-05-01T00:18:27.367Z,41.05
2019-05-01T00:20:55.897Z,41.75
2019-05-01T00:23:24.375Z,43.80
2019-05-01T00:25:52.862Z,40.38
2019-05-01T00:28:21.591Z,43.08
2019-05-01T00:30:53.672Z,47.55
2019-05-01T00:33:23.229Z,48.10
2019-05-01T00:35:51.767Z,44.98
2019-05-01T00:38:20.259Z,44.77
2019-05-01T00:40:48.806Z,45.15
2019-05-01T00:43:17.298Z,47.78
2019-05-01T00:45:45.833Z,48.80
2019-05-01T00:48:15.216Z,46.28
2019-05-01T00:50:43.715Z,46.65
2019-05-01T00:53:12.306Z,51.98
2019-05-01T00:55:42.416Z,48.05
2019-05-01T00:58:21.500Z,50.23
2019-05-01T01:01:09.896Z,52.10
2019-05-01T01:03:39.041Z,52.20
2019-05-01T01:06:07.678Z,47.62
2019-05-01T01:08:36.273Z,49.63
2019-05-01T01:11:04.810Z,49.10
2019-05-01T01:13:33.455Z,49.98
2019-05-01T01:16:01.952Z,50.60
2019-05-01T01:18:30.417Z,53.33
2019-05-01T01:21:01.005Z,53.10
2019-05-01T01:23:40.598Z,50.63
2019-05-01T01:26:09.402Z,46.83
2019-05-01T01:28:37.948Z,49.73
2019-05-01T01:31:06.576Z,56.42
2019-05-01T01:33:35.110Z,51.60
2019-05-01T01:36:03.703Z,51.88
2019-05-01T01:38:45.330Z,51.55
2019-05-01T01:41:13.958Z,57.25
2019-05-01T01:43:44.319Z,53.60
2019-05-01T01:46:24.428Z,55.98
2019-05-01T01:48:53.116Z,53.83
2019-05-01T01:51:22.458Z,55.50
2019-05-01T01:54:01.821Z,55.63
2019-05-01T01:56:30.283Z,57.83
2019-05-01T01:58:58.996Z,58.92
2019-05-01T02:01:29.192Z,53.60
2019-05-01T02:04:02.095Z,52.95
2019-05-01T02:06:32.885Z,56.23
2019-05-01T02:09:01.407Z,56.08
2019-05-01T02:11:30.877Z,56.18
2019-05-01T02:13:59.490Z,59.48
2019-05-01T02:16:28.115Z,56.37
2019-05-01T02:18:56.565Z,57.88
2019-05-01T02:21:25.064Z,59.03
2019-05-01T02:23:53.524Z,59.03
2019-05-01T02:26:23.797Z,57.10
2019-05-01T02:28:57.315Z,57.55
2019-05-01T02:31:31.352Z,62.27
2019-05-01T02:34:01.769Z,61.20
2019-05-01T02:36:31.445Z,60.67
2019-05-01T02:39:00.573Z,63.00
2019-05-01T02:41:32.208Z,64.20
2019-05-01T02:44:03.840Z,60.60
2019-05-01T02:46:35.400Z,57.88
2019-05-01T02:49:09.559Z,60.65
2019-05-01T02:51:41.338Z,63.90
2019-05-01T02:54:11.440Z,58.17
2019-05-01T02:59:25.225Z,60.55
2019-05-01T03:01:54.563Z,63.35
2019-05-01T03:04:23.325Z,61.90
2019-05-01T03:06:52.713Z,67.85
2019-05-01T03:09:21.835Z,59.15
2019-05-01T03:11:53.637Z,65.15
2019-05-01T03:14:25.679Z,57.95
2019-05-01T03:16:57.705Z,63.10
2019-05-01T03:19:28.839Z,62.62
2019-05-01T03:24:44.537Z,66.77
2019-05-01T03:27:28.050Z,65.15
2019-05-01T03:29:56.534Z,63.87
2019-05-01T03:32:25.266Z,65.60
2019-05-01T03:34:53.786Z,64.27
2019-05-01T03:37:22.627Z,66.35
2019-05-01T03:39:59.056Z,66.53
2019-05-01T03:42:34.946Z,65.87
2019-05-01T03:45:04.364Z,65.70
2019-05-01T03:47:33.030Z,72.22
2019-05-01T03:50:01.687Z,79.30
2019-05-01T03:52:31.511Z,72.75
2019-05-01T03:55:00.266Z,74.20
2019-05-01T03:57:29.920Z,76.35
2019-05-01T03:59:58.519Z,78.37
2019-05-01T04:02:44.940Z,82.67
2019-05-01T04:05:13.470Z,84.15
2019-05-01T04:07:42.129Z,75.40
2019-05-01T04:10:10.849Z,76.47
2019-05-01T04:12:39.564Z,89.20
2019-05-01T04:15:08.273Z,83.30
2019-05-01T04:17:38.871Z,86.20
2019-05-01T04:20:09.214Z,84.83
2019-05-01T04:22:38.079Z,83.03
2019-05-01T04:25:10.751Z,80.32
2019-05-01T04:27:41.382Z,78.17
2019-05-01T04:30:14.925Z,75.47
2019-05-01T04:32:52.541Z,75.50
2019-05-01T04:35:18.546Z,67.32
2019-05-01T04:37:47.456Z,69.80
2019-05-01T04:40:18.653Z,68.25
2019-05-01T04:42:46.894Z,70.55
2019-05-01T04:45:15.604Z,67.67
2019-05-01T04:47:44.398Z,69.75
2019-05-01T04:50:13.223Z,66.92
2019-05-01T04:52:53.760Z,63.65
2019-05-01T04:55:23.715Z,68.30
2019-05-01T04:57:52.636Z,58.57
2019-05-01T05:00:21.184Z,60.20
2019-05-01T05:03:04.424Z,55.73
2019-05-01T05:05:35.968Z,65.03
2019-05-01T05:08:04.603Z,62.83
2019-05-01T05:10:33.714Z,55.20
2019-05-01T05:13:05.241Z,55.43
2019-05-01T05:15:38.281Z,54.58
2019-05-01T05:18:06.891Z,55.88
2019-05-01T05:20:35.414Z,57.75
2019-05-01T05:23:03.936Z,58.75
2019-05-01T05:25:32.570Z,60.05
2019-05-01T05:28:01.217Z,57.25
2019-05-01T05:30:31.418Z,59.42
2019-05-01T05:33:02.619Z,54.13
2019-05-01T05:35:33.622Z,47.85
2019-05-01T05:40:37.587Z,50.43
2019-05-01T05:43:06.323Z,52.75
2019-05-01T05:45:34.855Z,53.83
2019-05-01T05:48:03.554Z,52.88
2019-05-01T05:51:01.451Z,56.75
2019-05-01T05:53:34.867Z,56.45
2019-05-01T05:56:10.939Z,59.15
2019-05-01T05:58:54.331Z,57.53
2019-05-01T06:04:19.331Z,54.20
2019-05-01T06:06:55.636Z,53.20
2019-05-01T06:09:28.885Z,58.42
2019-05-01T06:14:46.600Z,56.37
2019-05-01T06:20:25.963Z,51.10
2019-05-01T06:23:07.040Z,51.23
2019-05-01T06:25:38.654Z,51.63
2019-05-01T06:28:07.266Z,47.70
2019-05-01T06:30:35.972Z,52.33
2019-05-01T06:33:09.581Z,43.75
2019-05-01T06:35:40.379Z,45.40
2019-05-01T06:38:11.934Z,40.17
2019-05-01T06:40:59.985Z,38.85
2019-05-01T06:44:02.052Z,36.70
2019-05-01T06:46:31.860Z,35.35
2019-05-01T06:49:06.919Z,34.38
2019-05-01T06:51:37.362Z,38.10
2019-05-01T06:54:18.141Z,40.73
2019-05-01T06:56:49.783Z,41.05
2019-05-01T06:59:26.180Z,39.83
2019-05-01T07:01:57.844Z,41.42
2019-05-01T07:06:51.439Z,42.03
2019-05-01T07:09:33.839Z,44.15
2019-05-01T07:12:06.618Z,43.98
2019-05-01T07:14:37.578Z,44.38
2019-05-01T07:20:16.684Z,43.73
2019-05-01T07:22:50.814Z,45.73
2019-05-01T07:25:19.736Z,44.15
2019-05-01T07:27:49.435Z,41.98
2019-05-01T07:30:34.751Z,42.25
2019-05-01T07:33:06.655Z,38.85
2019-05-01T07:35:57.385Z,37.98
2019-05-01T07:38:26.728Z,37.05
2019-05-01T07:41:03.757Z,37.67
2019-05-01T07:43:45.344Z,33.75
2019-05-01T07:46:19.597Z,31.00
2019-05-01T07:48:48.556Z,31.80
2019-05-01T07:51:17.813Z,32.95
2019-05-01T07:53:46.952Z,30.57
2019-05-01T07:56:22.700Z,33.20
2019-05-01T07:59:05.541Z,36.20
2019-05-01T08:01:41.934Z,34.30
2019-05-01T08:04:13.863Z,33.78
2019-05-01T08:06:41.335Z,35.43
2019-05-01T08:09:15.062Z,37.63
2019-05-01T08:11:52.210Z,34.80
2019-05-01T08:14:22.314Z,31.10
2019-05-01T08:16:51.144Z,32.13
2019-05-01T08:19:24.278Z,35.50
2019-05-01T08:22:11.878Z,38.17
2019-05-01T08:24:58.803Z,36.93
2019-05-01T08:27:32.649Z,33.35
2019-05-01T08:33:16.004Z,33.33
2019-05-01T08:35:46.786Z,39.42
2019-05-01T08:38:22.706Z,34.53
2019-05-01T08:40:55.486Z,35.98
2019-05-01T08:43:21.677Z,37.28
2019-05-01T08:46:11.916Z,35.88
2019-05-01T08:48:43.949Z,40.33
2019-05-01T08:51:12.636Z,37.30
2019-05-01T08:53:45.067Z,38.25
2019-05-01T08:56:21.525Z,39.95
2019-05-01T08:58:49.377Z,41.10
2019-05-01T09:01:17.691Z,38.53
2019-05-01T09:03:49.728Z,36.95
2019-05-01T09:06:17.588Z,37.73
2019-05-01T09:08:46.178Z,35.63
2019-05-01T09:11:15.829Z,37.35
2019-05-01T09:13:44.327Z,38.05
2019-05-01T09:16:12.885Z,36.75
2019-05-01T09:18:42.748Z,39.13
2019-05-01T09:21:11.302Z,35.83
2019-05-01T09:23:46.269Z,37.75
2019-05-01T09:26:37.628Z,37.42
2019-05-01T09:29:16.146Z,37.40
2019-05-01T09:31:48.600Z,34.90
2019-05-01T09:34:31.099Z,35.70
2019-05-01T09:37:00.585Z,36.10
2019-05-01T09:39:32.448Z,38.42
2019-05-01T09:42:01.981Z,39.15
2019-05-01T09:44:37.450Z,34.35
2019-05-01T09:47:07.795Z,36.40
2019-05-01T09:49:36.372Z,37.70
2019-05-01T09:52:13.220Z,36.48
2019-05-01T09:54:59.569Z,39.23
2019-05-01T09:57:29.456Z,34.15
2019-05-01T10:00:09.649Z,38.90
2019-05-01T10:02:42.301Z,35.40
2019-05-01T10:05:11.032Z,37.95
2019-05-01T10:07:39.806Z,35.78
2019-05-01T10:10:10.937Z,36.85
2019-05-01T10:12:46.901Z,36.25
2019-05-01T10:15:22.797Z,37.25
2019-05-01T10:17:54.081Z,38.00
2019-05-01T10:20:25.580Z,38.90
2019-05-01T10:22:58.026Z,36.48
2019-05-01T10:28:27.757Z,40.60
2019-05-01T10:31:18.248Z,38.83
2019-05-01T10:34:02.953Z,37.17
2019-05-01T10:54:23.551Z,35.15
2019-05-01T10:56:52.257Z,33.73
2019-05-01T10:59:20.811Z,35.40
2019-05-01T11:01:50.996Z,35.05
2019-05-01T11:04:19.545Z,35.85
2019-05-01T11:06:48.140Z,34.13
2019-05-01T11:09:16.804Z,36.33
2019-05-01T11:12:03.768Z,33.95
2019-05-01T11:14:32.368Z,36.77
2019-05-01T11:17:01.996Z,35.55
2019-05-01T11:19:31.610Z,36.03
2019-05-01T11:22:12.571Z,36.28
2019-05-01T11:24:42.240Z,37.55
2019-05-01T11:27:10.871Z,42.17
2019-05-01T11:29:40.400Z,38.17
2019-05-01T11:32:19.561Z,39.48
2019-05-01T11:35:07.945Z,38.90
2019-05-01T11:37:41.099Z,37.15
2019-05-01T11:40:14.551Z,36.63
2019-05-01T11:42:43.115Z,37.35
2019-05-01T11:45:11.943Z,36.80
2019-05-01T11:47:40.481Z,35.75
2019-05-01T11:50:09.208Z,33.48
2019-05-01T11:52:37.681Z,35.20
2019-05-01T11:55:06.667Z,35.30
2019-05-01T11:57:35.227Z,38.45
2019-05-01T12:00:09.111Z,35.08
2019-05-01T12:02:37.693Z,34.80
2019-05-01T12:05:07.260Z,37.13
2019-05-01T12:07:35.740Z,35.03
2019-05-01T12:10:06.168Z,36.83
2019-05-01T12:12:35.206Z,36.23
2019-05-01T12:15:06.095Z,40.43
2019-05-01T12:17:41.840Z,35.58
2019-05-01T12:20:13.798Z,35.03
2019-05-01T12:22:42.388Z,33.80
2019-05-01T12:25:11.407Z,31.48
2019-05-01T12:27:40.054Z,36.60
2019-05-01T12:30:09.285Z,35.68
2019-05-01T12:32:37.858Z,31.10
2019-05-01T12:35:06.767Z,33.13
2019-05-01T12:37:36.957Z,37.38
2019-05-01T12:40:07.989Z,29.57
2019-05-01T12:42:36.930Z,32.10
2019-05-01T12:45:08.306Z,30.95
2019-05-01T12:47:38.465Z,27.80
2019-05-01T12:50:10.389Z,26.37
2019-05-01T12:52:40.541Z,27.20
2019-05-01T12:55:37.859Z,33.65
2019-05-01T13:01:06.238Z,30.55
2019-05-01T13:03:34.733Z,26.60
2019-05-01T13:06:03.374Z,27.10
2019-05-01T13:08:31.842Z,29.70
2019-05-01T13:11:00.784Z,26.17
2019-05-01T13:13:29.316Z,26.07
2019-05-01T13:15:57.794Z,22.82
2019-05-01T13:18:26.279Z,26.27
2019-05-01T13:20:54.757Z,27.98
2019-05-01T13:23:25.383Z,28.77
2019-05-01T13:28:37.030Z,27.87
2019-05-01T13:31:07.346Z,24.05
2019-05-01T13:33:35.944Z,25.40
2019-05-01T13:36:04.549Z,22.75
2019-05-01T13:38:33.172Z,26.52
2019-05-01T13:41:01.662Z,28.85
2019-05-01T13:43:30.207Z,26.17
2019-05-01T13:45:58.690Z,24.75
2019-05-01T13:48:27.238Z,25.72
2019-05-01T13:50:55.705Z,20.88
2019-05-01T13:53:24.186Z,20.80
2019-05-01T13:58:47.282Z,22.73
2019-05-01T14:01:16.420Z,24.98
2019-05-01T14:03:45.033Z,24.37
2019-05-01T14:06:13.542Z,24.70
2019-05-01T14:08:42.163Z,21.33
2019-05-01T14:11:10.942Z,23.87
2019-05-01T14:13:39.556Z,21.87
2019-05-01T14:16:08.153Z,21.82
2019-05-01T14:18:43.625Z,25.82
2019-05-01T14:21:19.859Z,25.12
2019-05-01T14:29:55.136Z,23.27
2019-05-01T14:59:38.798Z,21.00
2019-05-01T15:02:07.547Z,23.67
2019-05-01T15:04:36.261Z,26.50
2019-05-01T15:07:05.126Z,20.70
2019-05-01T15:09:33.909Z,18.73
2019-05-01T15:12:04.031Z,21.00
2019-05-01T15:14:34.584Z,21.12
2019-05-01T15:17:04.962Z,20.55
2019-05-01T15:19:35.339Z,20.60
2019-05-01T15:22:04.129Z,18.65
2019-05-01T15:24:32.947Z,21.30
2019-05-01T15:27:01.672Z,19.57
2019-05-01T15:29:31.457Z,17.60
2019-05-01T15:32:12.303Z,17.73
2019-05-01T15:45:57.838Z,18.10
2019-05-01T15:54:51.159Z,17.05
2019-05-01T17:01:50.815Z,15.63
2019-05-01T17:04:28.734Z,15.35
2019-05-01T17:07:44.653Z,16.32
2019-05-01T17:25:23.438Z,15.53
2019-05-01T17:28:08.164Z,16.27
2019-05-01T17:33:50.896Z,18.62
2019-05-01T17:39:24.966Z,14.68
2019-05-01T17:56:59.233Z,20.57
2019-05-01T17:59:27.903Z,18.25
2019-05-01T18:01:58.079Z,19.92
2019-05-01T18:04:47.586Z,19.77
2019-05-01T18:07:16.340Z,18.65
2019-05-01T18:09:46.478Z,19.40
2019-05-01T18:12:16.471Z,17.73
2019-05-01T18:14:45.114Z,17.27
2019-05-01T18:17:13.616Z,19.65
2019-05-01T18:19:42.709Z,15.85
2019-05-01T18:25:11.231Z,22.42
2019-05-01T18:27:59.049Z,22.77
2019-05-01T18:33:17.245Z,28.32
2019-05-01T18:36:04.237Z,25.57
2019-05-01T18:38:38.114Z,25.43
2019-05-01T18:41:27.043Z,22.82
2019-05-01T18:43:55.833Z,20.35
2019-05-01T18:46:24.565Z,22.32
2019-05-01T18:48:55.176Z,16.97
2019-05-01T18:51:25.529Z,18.70
2019-05-01T18:53:58.872Z,16.57
2019-05-01T18:56:38.220Z,13.13
2019-05-01T18:59:08.606Z,16.35
2019-05-01T19:01:37.271Z,11.97
2019-05-01T19:04:09.992Z,11.97
2019-05-01T19:06:43.498Z,10.95
2019-05-01T19:09:15.084Z,10.28
2019-05-01T19:11:45.582Z,13.10
2019-05-01T19:14:14.364Z,11.63
2019-05-01T19:16:48.844Z,8.85
2019-05-01T19:19:17.775Z,11.00
2019-05-01T19:21:52.440Z,11.68
2019-05-01T19:24:22.837Z,8.75
2019-05-01T19:26:53.475Z,9.48
2019-05-01T19:29:26.662Z,8.73
2019-05-01T19:31:53.331Z,9.95
2019-05-01T19:34:22.130Z,13.05
2019-05-01T19:36:51.607Z,10.50
2019-05-01T19:39:20.322Z,8.90
2019-05-01T19:41:50.880Z,8.33
2019-05-01T19:44:31.688Z,9.00
2019-05-01T19:49:46.812Z,9.83
2019-05-01T19:52:15.547Z,8.08
2019-05-01T19:54:45.303Z,7.22
2019-05-01T19:57:13.797Z,7.55
2019-05-01T19:59:43.650Z,8.20
2019-05-01T20:02:17.307Z,5.67
2019-05-01T20:04:45.196Z,6.80
2019-05-01T20:07:18.778Z,7.53
2019-05-01T20:09:56.688Z,7.90
2019-05-01T20:12:17.428Z,7.90
2019-05-01T20:14:58.098Z,6.97
2019-05-01T20:17:26.644Z,7.55
2019-05-01T20:19:55.174Z,7.75
2019-05-01T20:22:24.627Z,7.28
2019-05-01T20:24:53.170Z,9.88
2019-05-01T20:27:21.792Z,8.65
2019-05-01T20:29:50.291Z,8.60
2019-05-01T20:32:21.184Z,8.90
2019-05-01T20:34:52.686Z,7.95
2019-05-01T20:37:19.173Z,6.53
2019-05-01T20:39:48.656Z,7.03
2019-05-01T20:42:17.149Z,9.03
2019-05-01T20:44:45.673Z,6.87
2019-05-01T20:47:14.141Z,7.15
2019-05-01T20:49:42.696Z,7.37
2019-05-01T20:52:11.241Z,6.03
2019-05-01T20:54:39.711Z,8.73
2019-05-01T20:57:13.506Z,5.67
2019-05-01T20:59:40.553Z,7.70
2019-05-01T21:02:12.098Z,7.40
2019-05-01T21:04:44.878Z,7.37
2019-05-01T21:07:21.437Z,6.75
2019-05-01T21:09:57.036Z,8.03
2019-05-01T21:12:21.669Z,5.55
2019-05-01T21:14:51.066Z,6.50
2019-05-01T21:17:19.779Z,7.42
2019-05-01T21:19:50.326Z,8.60
2019-05-01T21:22:18.793Z,7.28
2019-05-01T21:24:47.290Z,7.28
2019-05-01T21:27:15.749Z,7.78
2019-05-01T21:29:44.584Z,7.05
2019-05-01T21:32:13.675Z,7.25
2019-05-01T21:34:43.608Z,8.85
2019-05-01T21:37:12.356Z,6.00
2019-05-01T21:39:40.862Z,11.00
2019-05-01T21:42:11.539Z,7.92
2019-05-01T21:44:39.625Z,8.30
2019-05-01T21:47:08.188Z,7.47
2019-05-01T21:49:36.719Z,8.23
2019-05-01T21:52:07.313Z,7.67
2019-05-01T21:54:35.755Z,8.65
2019-05-01T21:57:04.358Z,8.13
2019-05-01T21:59:32.820Z,7.70
2019-05-01T22:02:05.474Z,8.20
2019-05-01T22:04:32.038Z,8.05
2019-05-01T22:07:01.758Z,9.63
2019-05-01T22:09:31.736Z,8.73
2019-05-01T22:12:00.262Z,8.23
2019-05-01T22:17:08.845Z,8.63
2019-05-01T22:19:37.441Z,7.97
2019-05-01T22:22:12.399Z,9.88
2019-05-01T22:30:05.628Z,7.42
2019-05-01T22:32:45.178Z,10.13
2019-05-01T22:35:21.407Z,7.92
2019-05-01T22:37:50.034Z,8.28
2019-05-01T22:40:20.367Z,10.00
2019-05-01T22:42:51.049Z,10.32
2019-05-01T22:45:24.108Z,7.47
2019-05-01T22:47:52.742Z,10.48
2019-05-01T22:50:21.350Z,9.90
2019-05-01T22:52:49.808Z,8.13
2019-05-01T22:55:20.401Z,7.85
2019-05-01T22:57:48.471Z,11.63
2019-05-01T23:00:42.138Z,9.13
2019-05-01T23:03:24.353Z,9.53
2019-05-01T23:05:53.006Z,12.00
2019-05-01T23:08:21.531Z,10.28
2019-05-01T23:10:50.166Z,9.53
2019-05-01T23:13:18.638Z,11.30
2019-05-01T23:15:47.228Z,9.03
2019-05-01T23:18:17.374Z,9.25
2019-05-01T23:20:46.254Z,10.45
2019-05-01T23:23:14.814Z,9.85
2019-05-01T23:25:43.347Z,9.00
2019-05-01T23:28:11.828Z,9.63
2019-05-01T23:30:41.514Z,8.30
2019-05-01T23:33:09.969Z,10.93
2019-05-01T23:35:38.467Z,11.57
2019-05-01T23:38:06.939Z,9.90
2019-05-01T23:40:35.418Z,9.75
2019-05-01T23:43:04.083Z,9.23
2019-05-01T23:45:32.547Z,9.83
2019-05-01T23:48:01.018Z,9.55
2019-05-01T23:50:29.484Z,9.48
2019-05-01T23:52:57.944Z,10.48
2019-05-01T23:55:26.472Z,11.63
2019-05-01T23:57:57.043Z,10.72
